Time;durP1;ratioP1;P1;durP2;ratioP2;P2;SDS_P1;SDS_P2;PMS_P1;PMS_P2;Temp;Humidity;BMP_temperature;BMP_pressure;BME280_temperature;BME280_humidity;BME280_pressure;Samples;Min_cycle;Max_cycle;Signal;HPM_P1;HPM_P2
2022/09/06 00:00:11;;;;;;;13.25;6.80;;;15.90;99.90;;;;;;5030913;28;20033;-66
2022/09/06 00:02:37;;;;;;;13.35;7.43;;;15.90;99.90;;;;;;5028533;28;20073;-63
2022/09/06 00:05:04;;;;;;;16.13;7.28;;;15.80;99.90;;;;;;5030554;28;20049;-63
2022/09/06 00:07:30;;;;;;;17.65;7.38;;;15.70;99.90;;;;;;5028910;28;20033;-63
2022/09/06 00:09:56;;;;;;;16.88;6.88;;;15.60;99.90;;;;;;5026769;28;20045;-63
2022/09/06 00:12:23;;;;;;;14.38;7.30;;;15.50;99.90;;;;;;5029911;28;20057;-62
2022/09/06 00:14:49;;;;;;;15.70;7.30;;;15.50;99.90;;;;;;5030066;28;20108;-64
2022/09/06 00:17:15;;;;;;;13.82;7.00;;;15.60;99.90;;;;;;5027508;28;20184;-63
2022/09/06 00:19:41;;;;;;;16.77;7.40;;;15.60;99.90;;;;;;5029080;28;20499;-63
2022/09/06 00:22:06;;;;;;;12.93;7.43;;;15.70;99.90;;;;;;5028855;28;20120;-64
2022/09/06 00:24:32;;;;;;;11.70;7.20;;;15.70;99.90;;;;;;5029833;28;20064;-62
2022/09/06 00:26:58;;;;;;;14.55;7.40;;;15.70;99.90;;;;;;5029256;28;20033;-64
2022/09/06 00:29:23;;;;;;;12.38;7.55;;;15.70;99.90;;;;;;5030221;28;20034;-62
2022/09/06 00:31:49;;;;;;;14.73;7.00;;;15.60;99.90;;;;;;5029097;28;20103;-63
2022/09/06 00:34:14;;;;;;;10.90;7.15;;;15.60;99.90;;;;;;5029026;28;20049;-64
2022/09/06 00:36:40;;;;;;;15.00;7.35;;;15.60;99.90;;;;;;5028066;28;20026;-63
2022/09/06 00:39:06;;;;;;;17.75;7.57;;;15.60;99.90;;;;;;5030019;28;20065;-65
2022/09/06 00:41:31;;;;;;;13.27;7.38;;;15.60;99.90;;;;;;5029209;28;20116;-64
2022/09/06 00:43:57;;;;;;;15.48;7.20;;;15.60;99.90;;;;;;5030040;28;20486;-63
2022/09/06 00:46:26;;;;;;;13.90;7.35;;;15.60;99.90;;;;;;5028282;28;20494;-63
2022/09/06 00:48:57;;;;;;;18.52;7.82;;;15.60;99.90;;;;;;5026448;28;20128;-64
2022/09/06 00:51:27;;;;;;;17.48;7.82;;;15.60;99.90;;;;;;5028120;28;20021;-64
2022/09/06 00:53:54;;;;;;;15.70;7.35;;;15.40;99.90;;;;;;5029871;28;20479;-63
2022/09/06 00:56:20;;;;;;;15.02;7.97;;;15.30;99.90;;;;;;5029215;28;20037;-63
2022/09/06 00:58:46;;;;;;;13.32;7.60;;;15.20;99.90;;;;;;5029463;28;20040;-64
2022/09/06 01:01:12;;;;;;;18.17;7.70;;;15.30;99.90;;;;;;5027366;28;20029;-64
2022/09/06 01:03:38;;;;;;;15.30;8.40;;;15.20;99.90;;;;;;5027358;28;20041;-62
2022/09/06 01:06:19;;;;;;;14.77;7.50;;;15.20;99.90;;;;;;5027377;28;20045;-64
2022/09/06 01:08:50;;;;;;;;;;;15.20;99.90;;;;;;5030151;28;20036;-64
2022/09/06 01:11:40;;;;;;;15.38;8.48;;;15.20;99.90;;;;;;5027665;28;20318;-62
2022/09/06 01:14:35;;;;;;;17.33;8.77;;;15.10;99.90;;;;;;5030501;28;20029;-64
2022/09/06 01:17:04;;;;;;;17.35;8.95;;;15.20;99.90;;;;;;5023246;28;20132;-63
2022/09/06 01:20:10;;;;;;;22.92;8.93;;;15.10;99.90;;;;;;5029405;28;20097;-64
2022/09/06 01:22:56;;;;;;;20.60;8.93;;;15.10;99.90;;;;;;5025600;28;20494;-65
2022/09/06 01:25:43;;;;;;;18.15;8.43;;;15.10;99.90;;;;;;5028527;28;20045;-64
2022/09/06 01:28:26;;;;;;;16.48;8.25;;;15.00;99.90;;;;;;5028882;28;20037;-64
2022/09/06 01:31:14;;;;;;;11.52;6.65;;;15.10;99.90;;;;;;5027663;28;20049;-64
2022/09/06 01:33:46;;;;;;;23.65;7.93;;;15.10;99.90;;;;;;5028436;28;20045;-63
2022/09/06 01:36:17;;;;;;;20.83;7.85;;;15.10;99.90;;;;;;5027204;28;20483;-64
2022/09/06 01:38:43;;;;;;;19.52;7.85;;;15.00;99.90;;;;;;5029848;28;20112;-63
2022/09/06 01:41:09;;;;;;;14.27;7.78;;;15.00;99.90;;;;;;5024758;28;20116;-63
2022/09/06 01:43:39;;;;;;;19.52;8.18;;;15.10;99.90;;;;;;5009425;28;20103;-64
2022/09/06 01:46:38;;;;;;;16.65;8.35;;;15.00;99.90;;;;;;5021224;28;20486;-64
2022/09/06 01:49:25;;;;;;;13.85;7.63;;;14.90;99.90;;;;;;5029676;28;20082;-63
2022/09/06 01:52:19;;;;;;;13.80;7.95;;;14.90;99.90;;;;;;5023727;28;20033;-64
2022/09/06 01:54:50;;;;;;;14.73;7.00;;;14.90;99.90;;;;;;5017258;28;20533;-64
2022/09/06 01:57:23;;;;;;;14.02;7.57;;;14.80;99.90;;;;;;5009110;28;20113;-64
2022/09/06 02:00:00;;;;;;;15.25;7.90;;;14.80;99.90;;;;;;5017794;28;20079;-62
2022/09/06 02:02:32;;;;;;;21.60;8.68;;;14.70;99.90;;;;;;5027941;28;20038;-64
2022/09/06 02:05:33;;;;;;;17.83;8.50;;;14.70;99.90;;;;;;5026841;28;20037;-63
2022/09/06 02:08:45;;;;;;;21.98;9.48;;;14.70;99.90;;;;;;5009838;28;20030;-64
2022/09/06 02:11:13;;;;;;;21.52;9.32;;;14.70;99.90;;;;;;5026485;28;20107;-64
2022/09/06 02:13:54;;;;;;;20.90;9.00;;;14.70;99.90;;;;;;5027914;28;20470;-64
2022/09/06 02:16:24;;;;;;;18.77;9.30;;;14.60;99.90;;;;;;5027493;28;20040;-62
2022/09/06 02:19:29;;;;;;;19.65;9.18;;;14.50;99.90;;;;;;5028644;28;20107;-62
2022/09/06 02:21:57;;;;;;;23.85;9.50;;;14.50;99.90;;;;;;5027713;28;20095;-65
2022/09/06 02:24:28;;;;;;;19.35;9.05;;;14.50;99.90;;;;;;5027575;28;20061;-64
2022/09/06 02:26:54;;;;;;;16.75;8.80;;;14.50;99.90;;;;;;5022783;28;20030;-65
2022/09/06 02:29:20;;;;;;;19.02;8.18;;;14.50;99.90;;;;;;5027316;28;20466;-63
2022/09/06 02:32:20;;;;;;;14.27;8.05;;;14.60;99.90;;;;;;5023537;28;20121;-64
2022/09/06 02:34:47;;;;;;;;;;;14.50;99.90;;;;;;5027854;28;20045;-63
2022/09/06 02:37:15;;;;;;;17.02;9.30;;;14.50;99.90;;;;;;5027026;28;19912;-63
2022/09/06 02:39:41;;;;;;;24.00;9.43;;;14.50;99.90;;;;;;5029386;28;20029;-64
2022/09/06 02:42:09;;;;;;;21.60;10.45;;;14.50;99.90;;;;;;5031990;28;20830;-64
2022/09/06 02:44:34;;;;;;;23.10;10.18;;;14.40;99.90;;;;;;5030353;28;20037;-63
2022/09/06 02:47:02;;;;;;;24.10;9.63;;;14.40;99.90;;;;;;5032164;28;20042;-64
2022/09/06 02:49:28;;;;;;;19.45;9.15;;;14.30;99.90;;;;;;5031037;28;20043;-64
2022/09/06 02:51:55;;;;;;;17.75;9.18;;;14.40;99.90;;;;;;5030693;28;20132;-62
2022/09/06 02:54:21;;;;;;;18.08;8.75;;;14.40;99.90;;;;;;5031965;28;20139;-62
2022/09/06 02:56:47;;;;;;;21.08;10.18;;;14.40;99.90;;;;;;5027584;28;20108;-65
2022/09/06 02:59:12;;;;;;;20.73;10.45;;;14.40;99.90;;;;;;5031395;28;20870;-64
2022/09/06 03:01:38;;;;;;;23.33;10.43;;;14.30;99.90;;;;;;5030574;28;20060;-64
2022/09/06 03:04:04;;;;;;;16.90;9.10;;;14.20;99.90;;;;;;5032599;28;20037;-65
2022/09/06 03:06:30;;;;;;;18.55;9.88;;;14.10;99.90;;;;;;5030775;28;20083;-64
2022/09/06 03:08:55;;;;;;;19.40;8.98;;;14.10;99.90;;;;;;5032472;28;20490;-63
2022/09/06 03:11:21;;;;;;;17.55;8.60;;;14.10;99.90;;;;;;5029869;28;20029;-63
2022/09/06 03:13:47;;;;;;;22.02;8.40;;;14.20;99.90;;;;;;5032401;28;20037;-64
2022/09/06 03:16:12;;;;;;;20.38;9.80;;;14.10;99.90;;;;;;5031510;28;20029;-65
2022/09/06 03:18:38;;;;;;;17.23;9.23;;;14.10;99.90;;;;;;5031285;28;20028;-64
2022/09/06 03:21:04;;;;;;;26.92;10.40;;;14.00;99.90;;;;;;5030416;28;20029;-64
2022/09/06 03:23:30;;;;;;;15.07;8.23;;;13.80;99.90;;;;;;5030359;28;20033;-64
2022/09/06 03:25:56;;;;;;;12.90;7.93;;;13.60;99.90;;;;;;5031425;28;20037;-63
2022/09/06 03:28:22;;;;;;;14.27;8.23;;;13.80;99.90;;;;;;5030205;28;20029;-64
2022/09/06 03:30:50;;;;;;;15.20;7.95;;;14.20;99.90;;;;;;5029938;28;20135;-63
2022/09/06 03:33:15;;;;;;;16.52;8.45;;;14.40;99.90;;;;;;5030688;28;20587;-64
2022/09/06 03:35:48;;;;;;;20.77;8.18;;;14.40;99.90;;;;;;5030284;28;20101;-63
2022/09/06 03:38:13;;;;;;;9.65;6.28;;;14.40;99.90;;;;;;5031003;28;20560;-65
2022/09/06 03:40:39;;;;;;;14.43;7.97;;;14.50;99.90;;;;;;5028807;28;20018;-63
2022/09/06 03:43:05;;;;;;;15.30;7.20;;;14.70;99.90;;;;;;5030533;28;20034;-65
2022/09/06 03:45:30;;;;;;;10.93;7.07;;;14.80;99.90;;;;;;5029993;28;20033;-65
2022/09/06 03:47:56;;;;;;;10.43;6.53;;;14.70;99.90;;;;;;5030435;28;20374;-64
2022/09/06 03:50:21;;;;;;;10.85;6.88;;;14.80;99.90;;;;;;5030327;28;20026;-68
2022/09/06 03:52:47;;;;;;;11.60;6.85;;;14.90;99.90;;;;;;5011934;28;20051;-65
2022/09/06 03:55:13;;;;;;;11.68;6.68;;;14.90;99.90;;;;;;5015028;28;20036;-65
2022/09/06 03:57:38;;;;;;;9.00;5.82;;;15.10;99.90;;;;;;5031002;28;20040;-64
2022/09/06 04:00:04;;;;;;;10.68;6.13;;;15.30;99.90;;;;;;5030212;28;20044;-65
2022/09/06 04:02:30;;;;;;;10.52;5.97;;;15.40;99.90;;;;;;5030449;28;20389;-63
2022/09/06 04:04:56;;;;;;;8.50;6.05;;;15.60;99.90;;;;;;5030739;28;20025;-66
2022/09/06 04:07:22;;;;;;;10.52;6.13;;;15.70;99.90;;;;;;5028634;28;20097;-69
2022/09/06 04:09:48;;;;;;;11.32;6.85;;;15.80;99.90;;;;;;5029115;28;20036;-64
2022/09/06 04:12:14;;;;;;;11.70;7.07;;;15.80;99.90;;;;;;5028048;28;20038;-65
2022/09/06 04:14:39;;;;;;;10.52;6.38;;;15.80;99.90;;;;;;5030687;28;20029;-64
2022/09/06 04:17:05;;;;;;;15.93;7.63;;;15.90;99.90;;;;;;5030404;28;20493;-64
2022/09/06 04:19:31;;;;;;;12.52;7.13;;;15.90;99.90;;;;;;5029096;28;20037;-63
2022/09/06 04:21:56;;;;;;;12.30;7.70;;;16.00;99.90;;;;;;5029334;28;20033;-62
2022/09/06 04:24:22;;;;;;;10.15;6.95;;;16.20;99.90;;;;;;5029680;28;20044;-65
2022/09/06 04:26:47;;;;;;;16.83;7.47;;;16.20;99.90;;;;;;5029851;28;20038;-64
2022/09/06 04:29:13;;;;;;;14.05;7.38;;;16.20;99.90;;;;;;5031429;28;20060;-65
2022/09/06 04:31:39;;;;;;;13.48;7.50;;;16.20;99.90;;;;;;5029046;28;20485;-64
2022/09/06 04:34:04;;;;;;;12.82;7.50;;;16.20;99.90;;;;;;5031051;28;20034;-65
2022/09/06 04:36:30;;;;;;;11.15;7.25;;;16.20;99.90;;;;;;5028523;28;20029;-65
2022/09/06 04:38:56;;;;;;;14.00;7.43;;;16.20;99.90;;;;;;5028128;28;20037;-63
2022/09/06 04:41:21;;;;;;;14.93;7.47;;;16.20;99.90;;;;;;5022875;28;20833;-68
2022/09/06 04:43:48;;;;;;;11.90;7.97;;;16.20;99.90;;;;;;5027973;28;20040;-68
2022/09/06 04:46:23;;;;;;;19.00;8.30;;;16.00;99.90;;;;;;5043868;28;20044;-63
2022/09/06 04:48:50;;;;;;;13.23;6.72;;;16.00;99.90;;;;;;5024537;28;20021;-63
2022/09/06 04:51:16;;;;;;;11.10;7.25;;;16.10;99.90;;;;;;5030612;28;20153;-62
2022/09/06 04:53:42;;;;;;;10.95;7.05;;;16.10;99.90;;;;;;5029514;28;20169;-63
2022/09/06 04:56:14;;;;;;;14.95;7.70;;;16.20;99.90;;;;;;5028808;28;20505;-63
2022/09/06 04:58:41;;;;;;;12.82;7.32;;;16.30;99.90;;;;;;5029791;28;20026;-65
2022/09/06 05:01:07;;;;;;;13.85;7.50;;;16.40;99.90;;;;;;5030436;28;20112;-63
2022/09/06 05:03:32;;;;;;;12.30;7.45;;;16.40;99.90;;;;;;5028786;28;20494;-65
2022/09/06 05:06:08;;;;;;;12.68;7.53;;;16.40;99.90;;;;;;5030281;28;20148;-64
2022/09/06 05:08:39;;;;;;;11.70;7.57;;;16.30;99.90;;;;;;5028705;28;20145;-63
2022/09/06 05:11:06;;;;;;;13.98;7.88;;;16.30;99.90;;;;;;5030111;28;20029;-66
2022/09/06 05:13:33;;;;;;;17.15;8.20;;;16.30;99.90;;;;;;5029532;28;20040;-65
2022/09/06 05:16:03;;;;;;;18.20;8.25;;;16.30;99.90;;;;;;5030195;28;20029;-63
2022/09/06 05:18:29;;;;;;;19.60;8.63;;;16.20;99.90;;;;;;5028930;28;20029;-62
2022/09/06 05:20:55;;;;;;;21.05;9.13;;;16.00;99.90;;;;;;5029411;28;20048;-62
2022/09/06 05:23:21;;;;;;;15.88;8.65;;;15.80;99.90;;;;;;5029079;28;20060;-62
2022/09/06 05:25:48;;;;;;;15.85;7.40;;;15.60;99.90;;;;;;5028696;28;20048;-65
2022/09/06 05:28:14;;;;;;;14.65;8.27;;;15.70;99.90;;;;;;5018775;28;20079;-65
2022/09/06 05:30:40;;;;;;;14.02;8.65;;;15.80;99.90;;;;;;5028821;28;20152;-64
2022/09/06 05:33:11;;;;;;;13.27;8.40;;;16.00;99.90;;;;;;5029689;28;20636;-64
2022/09/06 05:35:36;;;;;;;16.98;9.68;;;16.10;99.90;;;;;;5029144;28;20521;-64
2022/09/06 05:38:02;;;;;;;17.30;9.80;;;15.90;99.90;;;;;;5030146;28;20041;-65
2022/09/06 05:40:29;;;;;;;17.83;9.75;;;15.80;99.90;;;;;;5028969;28;20484;-67
2022/09/06 05:42:54;;;;;;;21.92;9.85;;;15.80;99.90;;;;;;5027839;28;20478;-65
2022/09/06 05:45:20;;;;;;;21.38;9.25;;;15.80;99.90;;;;;;5028992;28;20076;-64
2022/09/06 05:47:45;;;;;;;15.88;9.75;;;15.60;99.90;;;;;;5027373;28;20451;-64
2022/09/06 05:50:11;;;;;;;20.10;9.27;;;15.40;99.90;;;;;;5029126;28;20072;-62
2022/09/06 05:52:38;;;;;;;16.08;9.40;;;15.40;99.90;;;;;;5028815;28;20470;-62
2022/09/06 05:55:05;;;;;;;15.15;9.02;;;15.30;99.90;;;;;;5029727;28;20053;-63
2022/09/06 05:57:31;;;;;;;16.45;8.57;;;15.40;99.90;;;;;;5018074;28;20052;-64
2022/09/06 05:59:56;;;;;;;15.95;9.73;;;15.40;99.90;;;;;;5025453;28;20462;-64
2022/09/06 06:02:25;;;;;;;15.57;8.50;;;15.50;99.90;;;;;;5025800;28;20044;-67
2022/09/06 06:04:53;;;;;;;14.85;8.80;;;15.70;99.90;;;;;;5027220;28;20439;-64
2022/09/06 06:07:19;;;;;;;14.40;8.15;;;15.80;99.90;;;;;;5029503;28;20086;-65
2022/09/06 06:09:44;;;;;;;18.90;9.85;;;16.00;99.90;;;;;;5028512;28;20037;-62
2022/09/06 06:12:10;;;;;;;14.95;8.77;;;16.10;99.90;;;;;;5029418;28;20049;-64
2022/09/06 06:14:36;;;;;;;17.52;9.18;;;16.20;99.90;;;;;;5029166;28;20124;-64
2022/09/06 06:17:02;;;;;;;15.88;9.10;;;16.30;99.90;;;;;;5033598;28;20026;-65
2022/09/06 06:19:28;;;;;;;17.55;8.98;;;16.40;99.90;;;;;;5032226;28;20462;-67
2022/09/06 06:21:55;;;;;;;13.63;8.65;;;16.50;99.90;;;;;;5033047;28;20037;-64
2022/09/06 06:24:20;;;;;;;11.32;7.55;;;16.70;99.90;;;;;;5033312;28;20064;-64
2022/09/06 06:26:46;;;;;;;12.98;8.02;;;16.80;99.90;;;;;;5031140;28;20514;-65
2022/09/06 06:29:13;;;;;;;15.65;7.72;;;16.90;99.90;;;;;;5033372;28;20041;-64
2022/09/06 06:31:39;;;;;;;18.92;8.05;;;16.90;99.90;;;;;;5031931;28;20065;-64
2022/09/06 06:34:05;;;;;;;14.70;8.77;;;17.00;99.90;;;;;;5032329;28;20040;-64
2022/09/06 06:36:32;;;;;;;14.32;8.98;;;17.00;99.90;;;;;;5032337;28;20042;-66
2022/09/06 06:38:59;;;;;;;11.43;8.05;;;17.00;99.90;;;;;;5033223;28;20021;-62
2022/09/06 06:41:27;;;;;;;12.55;7.57;;;17.10;99.90;;;;;;5032191;28;20493;-63
2022/09/06 06:43:55;;;;;;;15.20;8.38;;;17.10;99.90;;;;;;5032414;28;20030;-66
2022/09/06 06:46:23;;;;;;;22.63;9.85;;;17.10;99.90;;;;;;5033193;28;20033;-62
2022/09/06 06:48:49;;;;;;;16.90;8.75;;;17.20;99.90;;;;;;5030881;28;20026;-63
2022/09/06 06:51:18;;;;;;;14.88;7.78;;;17.30;99.90;;;;;;5029610;28;20040;-64
2022/09/06 06:53:46;;;;;;;12.23;8.13;;;17.40;99.90;;;;;;5025114;28;20041;-65
2022/09/06 06:56:23;;;;;;;14.52;8.07;;;17.50;99.90;;;;;;5020995;28;20025;-62
2022/09/06 06:58:51;;;;;;;13.55;8.50;;;17.60;99.90;;;;;;5031574;28;20330;-63
2022/09/06 07:01:19;;;;;;;13.77;7.65;;;17.70;99.90;;;;;;5032418;28;20033;-65
2022/09/06 07:03:45;;;;;;;12.35;7.63;;;17.80;99.90;;;;;;5031882;28;20119;-64
2022/09/06 07:06:12;;;;;;;12.38;7.22;;;18.00;99.90;;;;;;5032557;28;20037;-64
2022/09/06 07:08:38;;;;;;;11.65;7.38;;;18.10;99.90;;;;;;5029615;28;20033;-63
2022/09/06 07:11:09;;;;;;;11.50;7.20;;;18.20;99.90;;;;;;5032487;28;20510;-65
2022/09/06 07:13:35;;;;;;;12.25;7.22;;;18.30;99.90;;;;;;5031772;28;20038;-63
2022/09/06 07:16:08;;;;;;;11.38;6.80;;;18.30;99.90;;;;;;5032571;28;20032;-65
2022/09/06 07:18:34;;;;;;;11.90;6.80;;;18.40;99.90;;;;;;5031627;28;20056;-68
2022/09/06 07:20:59;;;;;;;9.52;6.38;;;18.40;99.90;;;;;;5031390;28;20116;-64
2022/09/06 07:23:25;;;;;;;8.68;6.13;;;18.50;99.90;;;;;;5030607;28;20179;-63
2022/09/06 07:25:50;;;;;;;10.15;6.68;;;18.60;99.90;;;;;;5031092;28;20520;-63
2022/09/06 07:28:16;;;;;;;13.18;6.35;;;18.60;99.90;;;;;;5032317;28;20027;-62
2022/09/06 07:30:42;;;;;;;13.50;7.05;;;18.60;99.90;;;;;;5031217;28;20054;-65
2022/09/06 07:33:07;;;;;;;13.40;6.93;;;18.60;99.90;;;;;;5032460;28;20073;-63
2022/09/06 07:35:33;;;;;;;13.45;7.32;;;18.60;99.90;;;;;;5031061;28;20034;-66
2022/09/06 07:38:00;;;;;;;13.00;6.55;;;18.60;99.90;;;;;;5030971;28;20037;-63
2022/09/06 07:40:28;;;;;;;7.60;5.43;;;18.60;99.90;;;;;;5032068;28;20030;-64
2022/09/06 07:42:59;;;;;;;11.05;6.05;;;18.60;99.90;;;;;;5031096;28;20032;-63
2022/09/06 07:45:26;;;;;;;13.02;5.30;;;18.80;99.90;;;;;;5032023;28;20040;-66
2022/09/06 07:47:58;;;;;;;14.85;5.47;;;18.80;99.90;;;;;;5031174;28;20061;-63
2022/09/06 07:50:25;;;;;;;9.02;5.53;;;18.80;99.90;;;;;;5031580;28;20465;-65
2022/09/06 07:52:51;;;;;;;8.85;5.88;;;18.90;99.90;;;;;;5030055;28;20045;-66
2022/09/06 07:55:16;;;;;;;14.88;8.18;;;19.10;99.90;;;;;;5031456;28;20112;-64
2022/09/06 07:57:42;;;;;;;12.80;7.32;;;19.10;99.90;;;;;;5030972;28;20056;-65
2022/09/06 08:00:10;;;;;;;11.73;7.38;;;19.20;99.90;;;;;;5031466;28;20022;-65
2022/09/06 08:02:35;;;;;;;11.77;7.63;;;19.30;99.90;;;;;;5030969;28;20033;-67
2022/09/06 08:05:02;;;;;;;11.38;7.60;;;19.40;99.90;;;;;;5031522;28;20036;-64
2022/09/06 08:07:27;;;;;;;10.32;7.03;;;19.50;99.90;;;;;;5030392;28;20091;-63
2022/09/06 08:09:53;;;;;;;12.57;7.13;;;19.60;99.90;;;;;;5030699;28;20037;-63
2022/09/06 08:12:18;;;;;;;9.15;6.10;;;19.70;99.90;;;;;;5030815;28;20084;-62
2022/09/06 08:14:44;;;;;;;9.50;6.30;;;19.90;99.90;;;;;;5030856;28;20045;-65
2022/09/06 08:17:10;;;;;;;11.90;5.50;;;20.00;99.90;;;;;;5031300;28;20117;-62
2022/09/06 08:19:36;;;;;;;10.93;6.45;;;20.10;99.90;;;;;;5030929;28;20104;-67
2022/09/06 08:22:01;;;;;;;13.45;6.13;;;20.20;99.90;;;;;;5031060;28;20053;-65
2022/09/06 08:24:27;;;;;;;12.45;6.05;;;20.20;99.90;;;;;;5031137;28;20037;-65
2022/09/06 08:26:53;;;;;;;10.60;6.10;;;20.10;99.90;;;;;;5029437;28;20029;-63
2022/09/06 08:29:18;;;;;;;11.40;5.70;;;20.20;99.90;;;;;;5031179;28;20041;-66
2022/09/06 08:31:44;;;;;;;9.90;6.00;;;20.30;99.90;;;;;;5029460;28;20363;-65
2022/09/06 08:34:14;;;;;;;9.90;5.95;;;20.50;99.90;;;;;;5029707;28;20038;-65
2022/09/06 08:36:40;;;;;;;10.60;5.28;;;20.60;99.90;;;;;;5029387;28;20022;-66
2022/09/06 08:39:10;;;;;;;7.28;5.20;;;20.70;99.90;;;;;;5030841;28;20065;-65
2022/09/06 08:41:39;;;;;;;10.70;6.00;;;20.90;99.90;;;;;;5030398;28;20022;-66
2022/09/06 08:44:11;;;;;;;15.90;6.43;;;21.00;99.90;;;;;;5030525;28;20482;-64
2022/09/06 08:46:45;;;;;;;9.98;6.57;;;21.00;99.90;;;;;;5029057;28;20520;-68
2022/09/06 08:49:11;;;;;;;11.07;5.85;;;21.10;99.90;;;;;;5030831;28;20029;-65
2022/09/06 08:51:39;;;;;;;10.85;6.60;;;21.30;99.90;;;;;;5029363;28;20032;-68
2022/09/06 08:54:15;;;;;;;11.75;6.20;;;21.40;99.90;;;;;;5030342;28;20625;-63
2022/09/06 08:57:02;;;;;;;9.73;5.78;;;21.50;99.90;;;;;;5029869;28;20501;-65
2022/09/06 08:59:41;;;;;;;12.93;6.53;;;21.70;99.90;;;;;;5030593;28;20026;-63
2022/09/06 09:02:07;;;;;;;11.30;6.28;;;21.80;99.90;;;;;;5030432;28;20049;-65
2022/09/06 09:04:35;;;;;;;9.35;6.47;;;21.80;99.90;;;;;;5030336;28;20705;-63
2022/09/06 09:07:23;;;;;;;8.48;6.05;;;21.90;99.90;;;;;;5028571;28;20136;-65
2022/09/06 09:09:50;;;;;;;9.77;6.25;;;22.10;99.90;;;;;;5029878;28;20033;-65
2022/09/06 09:12:22;;;;;;;13.20;6.40;;;22.20;99.90;;;;;;5029534;28;20038;-63
2022/09/06 09:15:00;;;;;;;10.57;6.18;;;22.30;99.90;;;;;;5029553;28;20033;-63
2022/09/06 09:17:30;;;;;;;11.38;6.72;;;22.30;99.90;;;;;;5030183;28;20060;-63
2022/09/06 09:19:55;;;;;;;10.80;6.53;;;22.40;99.90;;;;;;5029174;28;20034;-65
2022/09/06 09:22:23;;;;;;;15.15;6.20;;;22.50;99.90;;;;;;5028772;28;20260;-64
2022/09/06 09:24:51;;;;;;;9.23;6.30;;;22.70;99.90;;;;;;5028299;28;20084;-63
2022/09/06 09:27:22;;;;;;;14.32;6.55;;;22.90;99.90;;;;;;5028041;28;20115;-63
2022/09/06 09:29:57;;;;;;;12.77;6.07;;;22.90;99.90;;;;;;5028201;28;20030;-64
2022/09/06 09:32:36;;;;;;;14.80;6.88;;;23.10;99.90;;;;;;5028921;28;20402;-63
2022/09/06 09:35:19;;;;;;;9.45;6.07;;;23.20;99.90;;;;;;5029068;28;20140;-64
2022/09/06 09:37:45;;;;;;;12.38;6.22;;;23.40;99.90;;;;;;5029085;28;20059;-63
2022/09/06 09:40:32;;;;;;;10.10;5.57;;;23.40;99.90;;;;;;5029751;28;20041;-63
2022/09/06 09:43:12;;;;;;;13.13;6.45;;;23.40;99.90;;;;;;5028798;28;20148;-64
2022/09/06 09:45:37;;;;;;;12.13;5.60;;;23.50;99.90;;;;;;5028550;28;20029;-63
2022/09/06 09:48:25;;;;;;;10.98;5.93;;;23.60;99.90;;;;;;5026359;28;20106;-63
2022/09/06 09:50:53;;;;;;;15.48;5.85;;;23.60;99.90;;;;;;5028880;28;20044;-63
2022/09/06 09:53:22;;;;;;;9.75;6.18;;;23.40;99.90;;;;;;5028720;28;20409;-64
2022/09/06 09:55:56;;;;;;;10.15;5.55;;;23.50;99.90;;;;;;5008810;28;20547;-62
2022/09/06 09:58:29;;;;;;;14.10;6.30;;;23.70;99.90;;;;;;5009971;28;20769;-63
2022/09/06 10:01:18;;;;;;;10.18;6.03;;;23.80;99.90;;;;;;5008793;28;20026;-65
2022/09/06 10:03:44;;;;;;;13.20;6.45;;;23.90;99.90;;;;;;5009232;28;20103;-65
2022/09/06 10:06:12;;;;;;;10.65;5.88;;;24.00;99.90;;;;;;5009830;28;20038;-62
2022/09/06 10:08:41;;;;;;;14.50;5.88;;;24.10;99.90;;;;;;5014619;28;20013;-64
2022/09/06 10:11:12;;;;;;;11.73;5.70;;;24.10;99.90;;;;;;5027735;28;20055;-64
2022/09/06 10:13:38;;;;;;;9.43;5.18;;;24.20;99.90;;;;;;5029449;28;20064;-62
2022/09/06 10:16:03;;;;;;;11.68;6.13;;;24.30;99.90;;;;;;5027663;28;20022;-62
2022/09/06 10:18:32;;;;;;;10.70;5.97;;;24.40;99.90;;;;;;5028577;28;20485;-63
2022/09/06 10:21:16;;;;;;;9.38;5.40;;;24.50;99.90;;;;;;5028236;28;20489;-63
2022/09/06 10:23:57;;;;;;;13.32;4.75;;;24.60;99.90;;;;;;5028882;28;20030;-66
2022/09/06 10:26:31;;;;;;;9.73;5.07;;;24.70;99.90;;;;;;5029404;28;20040;-62
2022/09/06 10:29:04;;;;;;;11.25;5.65;;;24.70;99.90;;;;;;5028462;28;20055;-64
2022/09/06 10:31:38;;;;;;;10.48;5.10;;;24.90;99.90;;;;;;5029064;28;20057;-64
2022/09/06 10:34:25;;;;;;;12.07;5.32;;;24.90;99.90;;;;;;5027279;28;20094;-65
2022/09/06 10:37:16;;;;;;;10.45;5.47;;;25.00;99.90;;;;;;5028271;28;20032;-63
2022/09/06 10:39:53;;;;;;;;;;;25.20;99.90;;;;;;5028525;28;20032;-68
2022/09/06 10:42:37;;;;;;;18.20;5.00;;;25.20;99.90;;;;;;5028880;28;20381;-64
2022/09/06 10:45:19;;;;;;;16.80;5.40;;;25.30;99.90;;;;;;5027947;28;20663;-66
2022/09/06 10:48:03;;;;;;;16.63;5.63;;;25.40;99.90;;;;;;5028716;28;20171;-66
2022/09/06 10:50:48;;;;;;;15.57;5.13;;;25.40;99.90;;;;;;5029052;28;20041;-62
2022/09/06 10:53:35;;;;;;;14.05;4.97;;;25.50;99.90;;;;;;5029071;28;20069;-63
2022/09/06 10:56:08;;;;;;;15.88;5.25;;;25.40;99.90;;;;;;5027313;28;20029;-64
2022/09/06 10:58:42;;;;;;;12.55;4.95;;;25.50;99.90;;;;;;5029328;28;20045;-65
2022/09/06 11:01:18;;;;;;;11.68;4.68;;;25.60;99.90;;;;;;5030435;28;20029;-64
2022/09/06 11:03:44;;;;;;;9.73;5.07;;;25.80;99.90;;;;;;5032589;28;20042;-66
2022/09/06 11:06:12;;;;;;;11.52;5.10;;;25.90;99.90;;;;;;5032422;28;20044;-62
2022/09/06 11:09:15;;;;;;;9.30;5.25;;;25.90;99.90;;;;;;5032512;28;20029;-65
2022/09/06 11:11:49;;;;;;;16.05;5.47;;;25.90;99.90;;;;;;5012876;28;20148;-65
2022/09/06 11:14:17;;;;;;;10.48;4.85;;;25.70;99.90;;;;;;5012828;28;20072;-64
2022/09/06 11:16:52;;;;;;;13.90;5.03;;;25.80;99.90;;;;;;5012716;28;20021;-65
2022/09/06 11:19:44;;;;;;;11.88;4.88;;;26.10;99.90;;;;;;5012565;28;20120;-65
2022/09/06 11:22:28;;;;;;;12.82;4.97;;;26.20;99.90;;;;;;5011409;28;20033;-62
2022/09/06 11:25:25;;;;;;;10.57;4.85;;;26.40;99.90;;;;;;5020897;28;20037;-64
2022/09/06 11:27:55;;;;;;;12.45;4.60;;;26.40;99.90;;;;;;5031564;28;20049;-65
2022/09/06 11:30:24;;;;;;;25.63;5.00;;;26.30;99.90;;;;;;5031863;28;20041;-64
2022/09/06 11:32:51;;;;;;;19.23;4.75;;;26.20;99.90;;;;;;5031445;28;20060;-65
2022/09/06 11:35:31;;;;;;;11.30;4.72;;;26.30;99.90;;;;;;5031063;28;20029;-63
2022/09/06 11:38:05;;;;;;;29.73;4.90;;;26.10;99.90;;;;;;5026008;28;20030;-63
2022/09/06 11:40:41;;;;;;;10.65;5.18;;;26.00;99.90;;;;;;5029703;28;20039;-63
2022/09/06 11:43:13;;;;;;;11.27;4.57;;;26.10;99.90;;;;;;5029698;28;20042;-65
2022/09/06 11:45:51;;;;;;;16.45;5.40;;;26.20;99.90;;;;;;5030316;28;20034;-63
2022/09/06 11:48:22;;;;;;;10.77;4.40;;;26.10;99.90;;;;;;5030792;28;20036;-63
2022/09/06 11:50:59;;;;;;;12.88;4.40;;;26.20;99.90;;;;;;5029052;28;20021;-66
2022/09/06 11:53:32;;;;;;;14.38;4.75;;;26.10;99.90;;;;;;5028456;28;20037;-62
2022/09/06 11:56:00;;;;;;;11.63;5.47;;;26.00;99.90;;;;;;5015516;28;20487;-65
2022/09/06 11:59:05;;;;;;;12.93;4.78;;;25.80;99.90;;;;;;5026506;28;20021;-65
2022/09/06 12:01:32;;;;;;;11.98;4.85;;;25.60;99.90;;;;;;5029325;28;20029;-62
2022/09/06 12:03:59;;;;;;;12.55;4.78;;;25.50;99.90;;;;;;5030624;28;20768;-63
2022/09/06 12:06:50;;;;;;;16.08;4.65;;;25.50;99.90;;;;;;5031495;28;20068;-64
2022/09/06 12:09:45;;;;;;;;;;;25.60;99.90;;;;;;5023160;28;20478;-63
2022/09/06 12:12:31;;;;;;;12.13;5.13;;;25.40;99.90;;;;;;5013220;28;19991;-64
2022/09/06 12:14:56;;;;;;;12.18;4.63;;;25.30;99.90;;;;;;5029578;28;20099;-62
2022/09/06 12:17:23;;;;;;;12.60;4.45;;;25.50;99.90;;;;;;5031285;28;20447;-65
2022/09/06 12:19:53;;;;;;;11.20;4.50;;;25.70;99.90;;;;;;5030892;28;20096;-65
2022/09/06 12:22:28;;;;;;;13.82;4.38;;;25.80;99.90;;;;;;5027446;28;20095;-63
2022/09/06 12:25:17;;;;;;;12.68;4.82;;;25.80;99.90;;;;;;5029925;28;20603;-65
2022/09/06 12:27:55;;;;;;;9.65;4.45;;;26.00;99.90;;;;;;5029083;28;20478;-63
2022/09/06 12:30:37;;;;;;;15.10;4.57;;;26.40;99.90;;;;;;5024695;28;20046;-63
2022/09/06 12:33:21;;;;;;;11.50;4.82;;;26.50;99.90;;;;;;5017149;28;20145;-62
2022/09/06 12:35:47;;;;;;;14.82;4.65;;;26.20;99.90;;;;;;5014388;28;20072;-63
2022/09/06 12:38:14;;;;;;;10.05;4.53;;;26.10;99.90;;;;;;5010095;28;20883;-62
2022/09/06 12:40:46;;;;;;;13.50;5.00;;;26.10;99.90;;;;;;5024090;28;20021;-64
2022/09/06 12:43:15;;;;;;;13.82;4.43;;;26.10;99.90;;;;;;5028894;28;20638;-65
2022/09/06 12:45:43;;;;;;;13.57;4.50;;;26.20;99.90;;;;;;5030011;28;20070;-64
2022/09/06 12:48:12;;;;;;;16.02;4.68;;;26.10;99.90;;;;;;5028167;28;20052;-64
2022/09/06 12:50:39;;;;;;;8.77;4.00;;;26.10;99.90;;;;;;5028088;28;20032;-64
2022/09/06 12:53:23;;;;;;;13.90;4.60;;;25.90;99.90;;;;;;5026402;28;20079;-66
2022/09/06 12:56:05;;;;;;;15.45;4.15;;;25.80;99.90;;;;;;5030332;28;20099;-63